Time;durP1;ratioP1;P1;durP2;ratioP2;P2;SDS_P1;SDS_P2;PMS_P1;PMS_P2;Temp;Humidity;BMP_temperature;BMP_pressure;BME280_temperature;BME280_humidity;BME280_pressure;Samples;Min_cycle;Max_cycle;Signal;HPM_P1;HPM_P2
2021/09/23 00:00:52;;;;;;;;;;;;;;;;;;2089422;28;19920;-58
2021/09/23 00:01:53;;;;;;;;;;;;;;;;;;2086940;28;19927;-58
2021/09/23 00:03:20;;;;;;;;;;;;;;;;;;2081658;28;19921;-59
2021/09/23 00:04:31;;;;;;;;;;;;;;;;;;2085230;28;20247;-58
2021/09/23 00:05:32;;;;;;;;;;;;;;;;;;2088919;28;20437;-59
2021/09/23 00:06:33;;;;;;;;;;;;;;;;;;2089713;28;19928;-59
2021/09/23 00:07:33;;;;;;;;;;;;;;;;;;2088516;28;19951;-59
2021/09/23 00:08:34;;;;;;;;;;;;;;;;;;2081561;28;19921;-59
2021/09/23 00:09:35;;;;;;;;;;;;;;;;;;2081692;28;20319;-58
2021/09/23 00:10:36;;;;;;;;;;;;;;;;;;2087038;28;19921;-58
2021/09/23 00:11:37;;;;;;;;;;;;;;;;;;2081557;28;19964;-59
2021/09/23 00:12:38;;;;;;;;;;;;;;;;;;2081575;28;19955;-59
2021/09/23 00:13:38;;;;;;;;;;;;;;;;;;2086886;28;20287;-59
2021/09/23 00:14:39;;;;;;;;;;;;;;;;;;2089680;28;19925;-59
2021/09/23 00:15:40;;;;;;;;;;;;;;;;;;2089152;28;19921;-58
2021/09/23 00:16:41;;;;;;;;;;;;;;;;;;2087823;28;19928;-58
2021/09/23 00:17:47;;;;;;;;;;;;;;;;;;2089677;28;20374;-58
2021/09/23 00:18:48;;;;;;;;;;;;;;;;;;2089520;28;20337;-44
2021/09/23 00:19:48;;;;;;;;;;;;;;;;;;2086081;28;19974;-43
2021/09/23 00:20:49;;;;;;;;;;;;;;;;;;2081525;28;19948;-43
2021/09/23 00:21:50;;;;;;;;;;;;;;;;;;2082953;28;19936;-43
2021/09/23 00:22:51;;;;;;;;;;;;;;;;;;2085504;28;20267;-43
2021/09/23 00:23:53;;;;;;;;;;;;;;;;;;2081341;28;19921;-43
2021/09/23 00:24:54;;;;;;;;;;;;;;;;;;2085987;28;19933;-43
2021/09/23 00:25:54;;;;;;;;;;;;;;;;;;2084935;28;19921;-43
2021/09/23 00:26:56;;;;;;;;;;;;;;;;;;2081579;28;20218;-43
2021/09/23 00:27:57;;;;;;;;;;;;;;;;;;2084199;28;19974;-43
2021/09/23 00:28:59;;;;;;;;;;;;;;;;;;2088188;28;19921;-43
2021/09/23 00:29:59;;;;;;;;;;;;;;;;;;2089587;28;20030;-43
2021/09/23 00:31:00;;;;;;;;;;;;;;;;;;2088668;28;19920;-44
2021/09/23 00:32:01;;;;;;;;;;;;;;;;;;2088043;28;19925;-43
2021/09/23 00:33:02;;;;;;;;;;;;;;;;;;2089503;28;20003;-43
2021/09/23 00:34:03;;;;;;;;;;;;;;;;;;2088568;28;19936;-43
2021/09/23 00:35:04;;;;;;;;;;;;;;;;;;2088685;28;19920;-44
2021/09/23 00:36:05;;;;;;;;;;;;;;;;;;2089651;28;20420;-43
2021/09/23 00:37:05;;;;;;;;;;;;;;;;;;2088678;28;20313;-43
2021/09/23 00:38:06;;;;;;;;;;;;;;;;;;2082356;28;20337;-43
2021/09/23 00:39:07;;;;;;;;;;;;;;;;;;2081487;28;19921;-43
2021/09/23 00:40:08;;;;;;;;;;;;;;;;;;2085464;28;20050;-43
2021/09/23 00:41:09;;;;;;;;;;;;;;;;;;2089600;28;19924;-43
2021/09/23 00:42:10;;;;;;;;;;;;;;;;;;2089529;28;19921;-43
2021/09/23 00:43:11;;;;;;;;;;;;;;;;;;2087440;28;19954;-43
2021/09/23 00:44:11;;;;;;;;;;;;;;;;;;2089500;28;19925;-43
2021/09/23 00:45:12;;;;;;;;;;;;;;;;;;2089608;28;19920;-43
2021/09/23 00:46:13;;;;;;;;;;;;;;;;;;2085791;28;19921;-43
2021/09/23 00:47:14;;;;;;;;;;;;;;;;;;2081797;28;19921;-44
2021/09/23 00:48:15;;;;;;;;;;;;;;;;;;2083990;28;19964;-43
2021/09/23 00:49:15;;;;;;;;;;;;;;;;;;2086912;28;19921;-43
2021/09/23 00:50:16;;;;;;;;;;;;;;;;;;2082686;28;19928;-43
2021/09/23 00:51:17;;;;;;;;;;;;;;;;;;2083276;28;19921;-43
2021/09/23 00:52:19;;;;;;;;;;;;;;;;;;2083949;28;19920;-43
2021/09/23 00:53:20;;;;;;;;;;;;;;;;;;2082702;28;19924;-43
2021/09/23 00:54:21;;;;;;;;;;;;;;;;;;2086435;28;20262;-43
2021/09/23 00:55:22;;;;;;;;;;;;;;;;;;2090480;28;19966;-43
2021/09/23 00:56:22;;;;;;;;;;;;;;;;;;2090904;28;19970;-43
2021/09/23 00:57:23;;;;;;;;;;;;;;;;;;2088842;28;20355;-43
2021/09/23 00:58:24;;;;;;;;;;;;;;;;;;2090941;28;20302;-43
2021/09/23 00:59:25;;;;;;;;;;;;;;;;;;2091059;28;19966;-43
2021/09/23 01:00:26;;;;;;;;;;;;;;;;;;2088573;28;19927;-43
2021/09/23 01:01:27;;;;;;;;;;;;;;;;;;2090812;28;19921;-43
2021/09/23 01:02:28;;;;;;;;;;;;;;;;;;2090909;28;19927;-43
2021/09/23 01:03:30;;;;;;;;;;;;;;;;;;2088593;28;19929;-43
2021/09/23 01:04:31;;;;;;;;;;;;;;;;;;2090914;28;19927;-43
2021/09/23 01:05:32;;;;;;;;;;;;;;;;;;2090838;28;19925;-43
2021/09/23 01:06:32;;;;;;;;;;;;;;;;;;2088555;28;19921;-43
2021/09/23 01:07:33;;;;;;;;;;;;;;;;;;2090996;28;19959;-43
2021/09/23 01:08:34;;;;;;;;;;;;;;;;;;2090510;28;19921;-43
2021/09/23 01:09:35;;;;;;;;;;;;;;;;;;2088884;28;19927;-44
2021/09/23 01:10:36;;;;;;;;;;;;;;;;;;2090789;28;19921;-44
2021/09/23 01:11:36;;;;;;;;;;;;;;;;;;2090445;28;19920;-43
2021/09/23 01:12:37;;;;;;;;;;;;;;;;;;2088937;28;19945;-43
2021/09/23 01:13:38;;;;;;;;;;;;;;;;;;2090898;28;19921;-42
2021/09/23 01:14:39;;;;;;;;;;;;;;;;;;2090336;28;20290;-42
2021/09/23 01:15:40;;;;;;;;;;;;;;;;;;2087031;28;20345;-43
2021/09/23 01:16:41;;;;;;;;;;;;;;;;;;2082721;28;19921;-43
2021/09/23 01:17:42;;;;;;;;;;;;;;;;;;2084239;28;19924;-43
2021/09/23 01:18:42;;;;;;;;;;;;;;;;;;2088969;28;19927;-43
2021/09/23 01:19:43;;;;;;;;;;;;;;;;;;2090928;28;19924;-43
2021/09/23 01:20:44;;;;;;;;;;;;;;;;;;2089629;28;20425;-42
2021/09/23 01:21:45;;;;;;;;;;;;;;;;;;2088937;28;19932;-43
2021/09/23 01:22:46;;;;;;;;;;;;;;;;;;2090810;28;20372;-43
2021/09/23 01:23:46;;;;;;;;;;;;;;;;;;2090039;28;19927;-43
2021/09/23 01:24:47;;;;;;;;;;;;;;;;;;2085423;28;19921;-43
2021/09/23 01:25:48;;;;;;;;;;;;;;;;;;2082619;28;19921;-43
2021/09/23 01:26:49;;;;;;;;;;;;;;;;;;2085677;28;20002;-43
2021/09/23 01:27:50;;;;;;;;;;;;;;;;;;2089456;28;19943;-42
2021/09/23 01:28:51;;;;;;;;;;;;;;;;;;2090905;28;20329;-43
2021/09/23 01:29:51;;;;;;;;;;;;;;;;;;2089840;28;19948;-43
2021/09/23 01:30:52;;;;;;;;;;;;;;;;;;2089491;28;19921;-43
2021/09/23 01:31:53;;;;;;;;;;;;;;;;;;2090670;28;19928;-43
2021/09/23 01:32:54;;;;;;;;;;;;;;;;;;2089031;28;20374;-43
2021/09/23 01:33:55;;;;;;;;;;;;;;;;;;2090081;28;19921;-43
2021/09/23 01:34:55;;;;;;;;;;;;;;;;;;2090737;28;19925;-43
2021/09/23 01:35:58;;;;;;;;;;;;;;;;;;2088376;28;19921;-44
2021/09/23 01:36:59;;;;;;;;;;;;;;;;;;2090623;28;20277;-43
2021/09/23 01:37:59;;;;;;;;;;;;;;;;;;2090657;28;19925;-43
2021/09/23 01:39:00;;;;;;;;;;;;;;;;;;2088739;28;19928;-60
2021/09/23 01:40:01;;;;;;;;;;;;;;;;;;2090653;28;19943;-60
2021/09/23 01:41:02;;;;;;;;;;;;;;;;;;2090552;28;19925;-60
2021/09/23 01:42:03;;;;;;;;;;;;;;;;;;2089682;28;20358;-60
2021/09/23 01:43:03;;;;;;;;;;;;;;;;;;2090717;28;20362;-61
2021/09/23 01:44:04;;;;;;;;;;;;;;;;;;2090151;28;19943;-60
2021/09/23 01:45:05;;;;;;;;;;;;;;;;;;2086763;28;20290;-60
2021/09/23 01:46:06;;;;;;;;;;;;;;;;;;2082353;28;20354;-60
2021/09/23 01:47:07;;;;;;;;;;;;;;;;;;2084345;28;19921;-60
2021/09/23 01:48:08;;;;;;;;;;;;;;;;;;2085394;28;20408;-60
2021/09/23 01:49:08;;;;;;;;;;;;;;;;;;2082516;28;20322;-60
2021/09/23 01:50:10;;;;;;;;;;;;;;;;;;2084710;28;19920;-43
2021/09/23 01:51:10;;;;;;;;;;;;;;;;;;2086764;28;20050;-43
2021/09/23 01:52:11;;;;;;;;;;;;;;;;;;2090650;28;20337;-43
2021/09/23 01:53:12;;;;;;;;;;;;;;;;;;2089535;28;20321;-43
2021/09/23 01:54:13;;;;;;;;;;;;;;;;;;2089206;28;19921;-43
2021/09/23 01:55:13;;;;;;;;;;;;;;;;;;2090739;28;19921;-44
2021/09/23 01:56:14;;;;;;;;;;;;;;;;;;2089652;28;19927;-43
2021/09/23 01:57:15;;;;;;;;;;;;;;;;;;2089100;28;19921;-43
2021/09/23 01:58:16;;;;;;;;;;;;;;;;;;2090296;28;19920;-43
2021/09/23 01:59:16;;;;;;;;;;;;;;;;;;2088430;28;19927;-43
2021/09/23 02:00:17;;;;;;;;;;;;;;;;;;2090268;28;19920;-43
2021/09/23 02:01:18;;;;;;;;;;;;;;;;;;2090544;28;19921;-43
2021/09/23 02:02:19;;;;;;;;;;;;;;;;;;2089587;28;19925;-43
2021/09/23 02:03:21;;;;;;;;;;;;;;;;;;2090259;28;20263;-44
2021/09/23 02:04:22;;;;;;;;;;;;;;;;;;2090654;28;19963;-44
2021/09/23 02:05:23;;;;;;;;;;;;;;;;;;2088178;28;20285;-43
2021/09/23 02:06:23;;;;;;;;;;;;;;;;;;2089805;28;19920;-43
2021/09/23 02:07:24;;;;;;;;;;;;;;;;;;2090565;28;19944;-43
2021/09/23 02:08:25;;;;;;;;;;;;;;;;;;2088339;28;19921;-44
2021/09/23 02:09:26;;;;;;;;;;;;;;;;;;2082346;28;19921;-43
2021/09/23 02:10:27;;;;;;;;;;;;;;;;;;2082178;28;20058;-43
2021/09/23 02:11:28;;;;;;;;;;;;;;;;;;2087395;28;19929;-43
2021/09/23 02:12:28;;;;;;;;;;;;;;;;;;2090504;28;20362;-43
2021/09/23 02:13:29;;;;;;;;;;;;;;;;;;2090441;28;19924;-43
2021/09/23 02:14:30;;;;;;;;;;;;;;;;;;2087988;28;19925;-43
2021/09/23 02:15:31;;;;;;;;;;;;;;;;;;2090499;28;19920;-43
2021/09/23 02:16:31;;;;;;;;;;;;;;;;;;2090070;28;20259;-44
2021/09/23 02:17:32;;;;;;;;;;;;;;;;;;2088270;28;19939;-44
2021/09/23 02:18:33;;;;;;;;;;;;;;;;;;2090414;28;19927;-43
2021/09/23 02:19:34;;;;;;;;;;;;;;;;;;2090178;28;19967;-43
2021/09/23 02:20:35;;;;;;;;;;;;;;;;;;2088453;28;20374;-44
2021/09/23 02:21:36;;;;;;;;;;;;;;;;;;2090399;28;19920;-43
2021/09/23 02:22:36;;;;;;;;;;;;;;;;;;2089770;28;19921;-43
2021/09/23 02:23:37;;;;;;;;;;;;;;;;;;2088631;28;19920;-43
2021/09/23 02:24:38;;;;;;;;;;;;;;;;;;2090518;28;19920;-43
2021/09/23 02:25:39;;;;;;;;;;;;;;;;;;2089834;28;19921;-44
2021/09/23 02:26:39;;;;;;;;;;;;;;;;;;2086104;28;19924;-43
2021/09/23 02:27:40;;;;;;;;;;;;;;;;;;2082164;28;19921;-43
2021/09/23 02:28:41;;;;;;;;;;;;;;;;;;2083829;28;19931;-43
2021/09/23 02:29:42;;;;;;;;;;;;;;;;;;2085893;28;19928;-44
2021/09/23 02:30:43;;;;;;;;;;;;;;;;;;2082044;28;20045;-43
2021/09/23 02:31:43;;;;;;;;;;;;;;;;;;2084633;28;19928;-43
2021/09/23 02:32:44;;;;;;;;;;;;;;;;;;2085071;28;19921;-44
2021/09/23 02:33:46;;;;;;;;;;;;;;;;;;2082174;28;19983;-43
2021/09/23 02:34:46;;;;;;;;;;;;;;;;;;2085153;28;20271;-43
2021/09/23 02:35:47;;;;;;;;;;;;;;;;;;2088859;28;19927;-43
2021/09/23 02:36:48;;;;;;;;;;;;;;;;;;2090321;28;19920;-44
2021/09/23 02:37:49;;;;;;;;;;;;;;;;;;2089418;28;19921;-44
2021/09/23 02:38:50;;;;;;;;;;;;;;;;;;2084043;28;19925;-44
2021/09/23 02:39:51;;;;;;;;;;;;;;;;;;2082159;28;19921;-44
2021/09/23 02:40:52;;;;;;;;;;;;;;;;;;2085809;28;19944;-43
2021/09/23 02:41:52;;;;;;;;;;;;;;;;;;2089772;28;19920;-44
2021/09/23 02:42:53;;;;;;;;;;;;;;;;;;2090417;28;19924;-43
2021/09/23 02:43:54;;;;;;;;;;;;;;;;;;2087983;28;20328;-43
2021/09/23 02:44:55;;;;;;;;;;;;;;;;;;2090199;28;20285;-43
2021/09/23 02:45:56;;;;;;;;;;;;;;;;;;2090282;28;19921;-44
2021/09/23 02:46:57;;;;;;;;;;;;;;;;;;2089310;28;19921;-43
2021/09/23 02:47:57;;;;;;;;;;;;;;;;;;2082372;28;19928;-44
2021/09/23 02:48:59;;;;;;;;;;;;;;;;;;2082049;28;20023;-43
2021/09/23 02:50:00;;;;;;;;;;;;;;;;;;2085651;28;19960;-44
2021/09/23 02:51:00;;;;;;;;;;;;;;;;;;2080422;28;19921;-44
2021/09/23 02:52:01;;;;;;;;;;;;;;;;;;2083020;28;19921;-44
2021/09/23 02:53:02;;;;;;;;;;;;;;;;;;2088333;28;20438;-43
2021/09/23 02:54:03;;;;;;;;;;;;;;;;;;2090252;28;20370;-44
2021/09/23 02:55:04;;;;;;;;;;;;;;;;;;2089629;28;19935;-43
2021/09/23 02:56:04;;;;;;;;;;;;;;;;;;2085721;28;19944;-44
2021/09/23 02:57:05;;;;;;;;;;;;;;;;;;2081977;28;19921;-43
2021/09/23 02:58:06;;;;;;;;;;;;;;;;;;2084009;28;19959;-43
2021/09/23 02:59:07;;;;;;;;;;;;;;;;;;2085482;28;19924;-43
2021/09/23 03:00:08;;;;;;;;;;;;;;;;;;2082025;28;20420;-43
2021/09/23 03:01:08;;;;;;;;;;;;;;;;;;2084613;28;19921;-43
2021/09/23 03:02:09;;;;;;;;;;;;;;;;;;2088803;28;19928;-43
2021/09/23 03:03:14;;;;;;;;;;;;;;;;;;2090094;28;19920;-43
2021/09/23 03:04:15;;;;;;;;;;;;;;;;;;2087894;28;20367;-43
2021/09/23 03:05:16;;;;;;;;;;;;;;;;;;2090183;28;19921;-43
2021/09/23 03:06:17;;;;;;;;;;;;;;;;;;2090217;28;20381;-43
2021/09/23 03:07:17;;;;;;;;;;;;;;;;;;2087776;28;20392;-43
2021/09/23 03:08:20;;;;;;;;;;;;;;;;;;2090188;28;19924;-43
2021/09/23 03:09:20;;;;;;;;;;;;;;;;;;2090061;28;20380;-43
2021/09/23 03:10:21;;;;;;;;;;;;;;;;;;2086461;28;19921;-43
2021/09/23 03:11:22;;;;;;;;;;;;;;;;;;2081853;28;19921;-43
2021/09/23 03:12:23;;;;;;;;;;;;;;;;;;2082161;28;19955;-43
2021/09/23 03:13:24;;;;;;;;;;;;;;;;;;2087647;28;19924;-43
2021/09/23 03:14:25;;;;;;;;;;;;;;;;;;2090297;28;19924;-43
2021/09/23 03:15:26;;;;;;;;;;;;;;;;;;2089558;28;19927;-43
2021/09/23 03:16:26;;;;;;;;;;;;;;;;;;2088128;28;20354;-43
2021/09/23 03:17:27;;;;;;;;;;;;;;;;;;2090182;28;19920;-44
2021/09/23 03:18:28;;;;;;;;;;;;;;;;;;2089665;28;19921;-43
2021/09/23 03:19:29;;;;;;;;;;;;;;;;;;2088213;28;20611;-43
2021/09/23 03:20:30;;;;;;;;;;;;;;;;;;2090073;28;20439;-44
2021/09/23 03:21:30;;;;;;;;;;;;;;;;;;2089554;28;19927;-43
2021/09/23 03:22:33;;;;;;;;;;;;;;;;;;2087889;28;19979;-43
2021/09/23 03:23:34;;;;;;;;;;;;;;;;;;2090241;28;19959;-43
2021/09/23 03:24:34;;;;;;;;;;;;;;;;;;2089180;28;20289;-44
2021/09/23 03:25:35;;;;;;;;;;;;;;;;;;2088515;28;19927;-44
2021/09/23 03:26:36;;;;;;;;;;;;;;;;;;2089994;28;19927;-44
2021/09/23 03:27:37;;;;;;;;;;;;;;;;;;2089075;28;19944;-43
2021/09/23 03:28:38;;;;;;;;;;;;;;;;;;2084530;28;19921;-43
2021/09/23 03:29:38;;;;;;;;;;;;;;;;;;2081856;28;19921;-44
2021/09/23 03:30:39;;;;;;;;;;;;;;;;;;2084948;28;19971;-43
2021/09/23 03:31:40;;;;;;;;;;;;;;;;;;2084008;28;19927;-44
2021/09/23 03:32:41;;;;;;;;;;;;;;;;;;2081735;28;19992;-44
2021/09/23 03:33:42;;;;;;;;;;;;;;;;;;2085360;28;19925;-43
2021/09/23 03:34:43;;;;;;;;;;;;;;;;;;2089010;28;19920;-43
2021/09/23 03:35:43;;;;;;;;;;;;;;;;;;2090023;28;20328;-44
2021/09/23 03:36:44;;;;;;;;;;;;;;;;;;2089076;28;19920;-43
2021/09/23 03:37:45;;;;;;;;;;;;;;;;;;2082738;28;20309;-43
2021/09/23 03:38:46;;;;;;;;;;;;;;;;;;2081736;28;20305;-44
2021/09/23 03:39:46;;;;;;;;;;;;;;;;;;2085368;28;20011;-43
2021/09/23 03:40:48;;;;;;;;;;;;;;;;;;2089424;28;19928;-43
2021/09/23 03:41:49;;;;;;;;;;;;;;;;;;2089874;28;19951;-43
2021/09/23 03:42:50;;;;;;;;;;;;;;;;;;2086686;28;20376;-43
2021/09/23 03:43:51;;;;;;;;;;;;;;;;;;2081776;28;19921;-43
2021/09/23 03:44:52;;;;;;;;;;;;;;;;;;2082463;28;19921;-43
2021/09/23 03:45:53;;;;;;;;;;;;;;;;;;2085657;28;19936;-43
2021/09/23 03:46:55;;;;;;;;;;;;;;;;;;2089822;28;20449;-43
2021/09/23 03:47:56;;;;;;;;;;;;;;;;;;2089440;28;19920;-43
2021/09/23 03:48:57;;;;;;;;;;;;;;;;;;2085568;28;19970;-43
2021/09/23 03:49:58;;;;;;;;;;;;;;;;;;2081591;28;19990;-44
2021/09/23 03:50:59;;;;;;;;;;;;;;;;;;2082155;28;20366;-43
2021/09/23 03:52:00;;;;;;;;;;;;;;;;;;2083234;28;19970;-43
2021/09/23 03:53:01;;;;;;;;;;;;;;;;;;2081485;28;20058;-43
2021/09/23 03:54:01;;;;;;;;;;;;;;;;;;2085220;28;19921;-43
2021/09/23 03:55:02;;;;;;;;;;;;;;;;;;2089790;28;19975;-43
2021/09/23 03:56:03;;;;;;;;;;;;;;;;;;2089687;28;19943;-43
2021/09/23 03:57:04;;;;;;;;;;;;;;;;;;2087767;28;20491;-43
2021/09/23 03:58:04;;;;;;;;;;;;;;;;;;2089696;28;19924;-43
2021/09/23 03:59:05;;;;;;;;;;;;;;;;;;2089945;28;20417;-43
2021/09/23 04:00:06;;;;;;;;;;;;;;;;;;2087333;28;20367;-43
2021/09/23 04:01:07;;;;;;;;;;;;;;;;;;2089855;28;19921;-43
2021/09/23 04:02:08;;;;;;;;;;;;;;;;;;2089737;28;20281;-43
2021/09/23 04:03:09;;;;;;;;;;;;;;;;;;2087530;28;19921;-43
2021/09/23 04:04:10;;;;;;;;;;;;;;;;;;2089827;28;19924;-43
2021/09/23 04:05:11;;;;;;;;;;;;;;;;;;2089742;28;20281;-43
2021/09/23 04:06:12;;;;;;;;;;;;;;;;;;2087513;28;19921;-43
2021/09/23 04:07:13;;;;;;;;;;;;;;;;;;2089777;28;19967;-43
2021/09/23 04:08:13;;;;;;;;;;;;;;;;;;2089455;28;19921;-43
2021/09/23 04:09:14;;;;;;;;;;;;;;;;;;2085006;28;19960;-43
2021/09/23 04:10:15;;;;;;;;;;;;;;;;;;2089206;28;19921;-43
2021/09/23 04:11:16;;;;;;;;;;;;;;;;;;2088846;28;19921;-43
2021/09/23 04:12:16;;;;;;;;;;;;;;;;;;2082727;28;19928;-44
2021/09/23 04:13:18;;;;;;;;;;;;;;;;;;2081518;28;19921;-43
2021/09/23 04:14:18;;;;;;;;;;;;;;;;;;2086475;28;20427;-44
2021/09/23 04:15:19;;;;;;;;;;;;;;;;;;2082090;28;19929;-43
2021/09/23 04:16:20;;;;;;;;;;;;;;;;;;2081680;28;19925;-43
2021/09/23 04:17:21;;;;;;;;;;;;;;;;;;2086199;28;20370;-43
2021/09/23 04:18:22;;;;;;;;;;;;;;;;;;2081777;28;20385;-59
2021/09/23 04:19:23;;;;;;;;;;;;;;;;;;2081464;28;19921;-59
2021/09/23 04:20:23;;;;;;;;;;;;;;;;;;2085547;28;19925;-59
2021/09/23 04:21:24;;;;;;;;;;;;;;;;;;2089614;28;19921;-58
2021/09/23 04:22:25;;;;;;;;;;;;;;;;;;2089648;28;19928;-59
2021/09/23 04:23:26;;;;;;;;;;;;;;;;;;2087513;28;19955;-58
2021/09/23 04:24:26;;;;;;;;;;;;;;;;;;2089785;28;19927;-59
2021/09/23 04:25:27;;;;;;;;;;;;;;;;;;2089100;28;19921;-59
2021/09/23 04:26:28;;;;;;;;;;;;;;;;;;2087857;28;20039;-58
2021/09/23 04:27:29;;;;;;;;;;;;;;;;;;2089487;28;19970;-59
2021/09/23 04:28:30;;;;;;;;;;;;;;;;;;2089269;28;20332;-58
2021/09/23 04:29:31;;;;;;;;;;;;;;;;;;2086417;28;19927;-59
2021/09/23 04:30:31;;;;;;;;;;;;;;;;;;2081486;28;19929;-59
2021/09/23 04:31:32;;;;;;;;;;;;;;;;;;2082366;28;19921;-59
2021/09/23 04:32:33;;;;;;;;;;;;;;;;;;2085250;28;20366;-59
2021/09/23 04:33:34;;;;;;;;;;;;;;;;;;2081302;28;20030;-59
2021/09/23 04:34:35;;;;;;;;;;;;;;;;;;2082869;28;20045;-59
2021/09/23 04:35:35;;;;;;;;;;;;;;;;;;2085474;28;19921;-58
2021/09/23 04:36:36;;;;;;;;;;;;;;;;;;2081327;28;19971;-59
2021/09/23 04:37:37;;;;;;;;;;;;;;;;;;2083170;28;19927;-58
2021/09/23 04:38:38;;;;;;;;;;;;;;;;;;2087965;28;20389;-59
2021/09/23 04:39:39;;;;;;;;;;;;;;;;;;2089600;28;19943;-59
2021/09/23 04:40:39;;;;;;;;;;;;;;;;;;2088691;28;19928;-58
2021/09/23 04:41:40;;;;;;;;;;;;;;;;;;2088155;28;19932;-59
2021/09/23 04:42:41;;;;;;;;;;;;;;;;;;2089596;28;19925;-59
2021/09/23 04:43:42;;;;;;;;;;;;;;;;;;2088724;28;20011;-59
2021/09/23 04:44:43;;;;;;;;;;;;;;;;;;2083920;28;20015;-59
2021/09/23 04:45:43;;;;;;;;;;;;;;;;;;2081262;28;19924;-59
2021/09/23 04:46:44;;;;;;;;;;;;;;;;;;2084775;28;19975;-59
2021/09/23 04:47:45;;;;;;;;;;;;;;;;;;2083261;28;19931;-58
2021/09/23 04:48:46;;;;;;;;;;;;;;;;;;2081334;28;19921;-59
2021/09/23 04:49:47;;;;;;;;;;;;;;;;;;2085232;28;19920;-59
2021/09/23 04:50:48;;;;;;;;;;;;;;;;;;2081371;28;19986;-58
2021/09/23 04:51:48;;;;;;;;;;;;;;;;;;2081304;28;19944;-58
2021/09/23 04:52:49;;;;;;;;;;;;;;;;;;2084987;28;20362;-59
2021/09/23 04:53:50;;;;;;;;;;;;;;;;;;2089181;28;19925;-59
2021/09/23 04:54:51;;;;;;;;;;;;;;;;;;2089610;28;20332;-58
2021/09/23 04:55:52;;;;;;;;;;;;;;;;;;2088472;28;20002;-59
2021/09/23 04:56:52;;;;;;;;;;;;;;;;;;2081666;28;19921;-59
2021/09/23 04:57:53;;;;;;;;;;;;;;;;;;2081408;28;19921;-59
2021/09/23 04:58:54;;;;;;;;;;;;;;;;;;2086969;28;19920;-59
2021/09/23 04:59:55;;;;;;;;;;;;;;;;;;2081232;28;19921;-59
2021/09/23 05:00:56;;;;;;;;;;;;;;;;;;2081232;28;19967;-59
2021/09/23 05:01:56;;;;;;;;;;;;;;;;;;2085728;28;19936;-59
2021/09/23 05:02:58;;;;;;;;;;;;;;;;;;2089568;28;19928;-58
2021/09/23 05:03:59;;;;;;;;;;;;;;;;;;2089459;28;19921;-58
2021/09/23 05:05:00;;;;;;;;;;;;;;;;;;2087159;28;20400;-58
2021/09/23 05:06:01;;;;;;;;;;;;;;;;;;2089148;28;20475;-58
2021/09/23 05:07:02;;;;;;;;;;;;;;;;;;2089190;28;20003;-59
2021/09/23 05:08:02;;;;;;;;;;;;;;;;;;2086513;28;19921;-59
2021/09/23 05:09:03;;;;;;;;;;;;;;;;;;2081321;28;19921;-59
2021/09/23 05:10:04;;;;;;;;;;;;;;;;;;2081902;28;19921;-59
2021/09/23 05:11:05;;;;;;;;;;;;;;;;;;2087387;28;19927;-58
2021/09/23 05:12:06;;;;;;;;;;;;;;;;;;2089443;28;19924;-59
2021/09/23 05:13:07;;;;;;;;;;;;;;;;;;2088831;28;19920;-59
2021/09/23 05:14:07;;;;;;;;;;;;;;;;;;2087074;28;19921;-58
2021/09/23 05:15:08;;;;;;;;;;;;;;;;;;2089453;28;19927;-59
2021/09/23 05:16:09;;;;;;;;;;;;;;;;;;2088967;28;19927;-59
2021/09/23 05:17:10;;;;;;;;;;;;;;;;;;2082840;28;20314;-59
2021/09/23 05:18:11;;;;;;;;;;;;;;;;;;2081191;28;19921;-59
2021/09/23 05:19:11;;;;;;;;;;;;;;;;;;2085215;28;19927;-58
2021/09/23 05:20:13;;;;;;;;;;;;;;;;;;2082607;28;19921;-58
2021/09/23 05:21:14;;;;;;;;;;;;;;;;;;2081119;28;19921;-59
2021/09/23 05:22:15;;;;;;;;;;;;;;;;;;2085945;28;19921;-59
2021/09/23 05:23:16;;;;;;;;;;;;;;;;;;2081910;28;19921;-58
2021/09/23 05:24:17;;;;;;;;;;;;;;;;;;2081223;28;19971;-58
2021/09/23 05:25:18;;;;;;;;;;;;;;;;;;2085294;28;19921;-58
2021/09/23 05:26:18;;;;;;;;;;;;;;;;;;2089358;28;19936;-58
2021/09/23 05:27:19;;;;;;;;;;;;;;;;;;2089324;28;20329;-59
2021/09/23 05:28:21;;;;;;;;;;;;;;;;;;2087817;28;19924;-59
2021/09/23 05:29:22;;;;;;;;;;;;;;;;;;2081169;28;19921;-58
2021/09/23 05:30:26;;;;;;;;;;;;;;;;;;2081179;28;19921;-59
2021/09/23 05:31:27;;;;;;;;;;;;;;;;;;2085796;28;19974;-59
2021/09/23 05:32:28;;;;;;;;;;;;;;;;;;2081159;28;19921;-58
2021/09/23 05:33:29;;;;;;;;;;;;;;;;;;2082016;28;19928;-58
2021/09/23 05:34:29;;;;;;;;;;;;;;;;;;2088875;28;20294;-58
2021/09/23 05:35:30;;;;;;;;;;;;;;;;;;2090682;28;19924;-58
2021/09/23 05:36:31;;;;;;;;;;;;;;;;;;2090265;28;19921;-58
2021/09/23 05:37:32;;;;;;;;;;;;;;;;;;2087107;28;19921;-58
2021/09/23 05:38:33;;;;;;;;;;;;;;;;;;2082440;28;19929;-58
2021/09/23 05:39:33;;;;;;;;;;;;;;;;;;2083653;28;19947;-58
2021/09/23 05:40:34;;;;;;;;;;;;;;;;;;2088959;28;19972;-58
2021/09/23 05:41:37;;;;;;;;;;;;;;;;;;2090601;28;19921;-58
2021/09/23 05:42:37;;;;;;;;;;;;;;;;;;2089873;28;19920;-57
2021/09/23 05:43:39;;;;;;;;;;;;;;;;;;2086088;28;19975;-58
2021/09/23 05:44:40;;;;;;;;;;;;;;;;;;2082433;28;20016;-59
2021/09/23 05:45:40;;;;;;;;;;;;;;;;;;2084916;28;20424;-58
2021/09/23 05:46:41;;;;;;;;;;;;;;;;;;2089167;28;20172;-58
2021/09/23 05:47:42;;;;;;;;;;;;;;;;;;2090630;28;19925;-58
2021/09/23 05:48:43;;;;;;;;;;;;;;;;;;2089691;28;19924;-58
2021/09/23 05:49:43;;;;;;;;;;;;;;;;;;2089340;28;19932;-58
2021/09/23 05:50:44;;;;;;;;;;;;;;;;;;2086263;28;19929;-58
2021/09/23 05:51:45;;;;;;;;;;;;;;;;;;2086002;28;19925;-58
2021/09/23 05:52:46;;;;;;;;;;;;;;;;;;2084376;28;19925;-58
2021/09/23 05:53:47;;;;;;;;;;;;;;;;;;2082375;28;19921;-57
2021/09/23 05:54:48;;;;;;;;;;;;;;;;;;2086094;28;19921;-57
2021/09/23 05:55:48;;;;;;;;;;;;;;;;;;2089870;28;20255;-58
2021/09/23 05:56:49;;;;;;;;;;;;;;;;;;2090475;28;19921;-58
2021/09/23 05:57:50;;;;;;;;;;;;;;;;;;2088530;28;19921;-57
2021/09/23 05:58:51;;;;;;;;;;;;;;;;;;2089443;28;19935;-58
2021/09/23 05:59:52;;;;;;;;;;;;;;;;;;2090476;28;19928;-58
2021/09/23 06:00:53;;;;;;;;;;;;;;;;;;2088342;28;19928;-58
2021/09/23 06:02:02;;;;;;;;;;;;;;;;;;2090284;28;20281;-58
2021/09/23 06:03:03;;;;;;;;;;;;;;;;;;2090513;28;20018;-57
2021/09/23 06:04:04;;;;;;;;;;;;;;;;;;2088138;28;19955;-57
2021/09/23 06:05:05;;;;;;;;;;;;;;;;;;2090522;28;20436;-57
2021/09/23 06:06:06;;;;;;;;;;;;;;;;;;2090006;28;19927;-57
2021/09/23 06:07:07;;;;;;;;;;;;;;;;;;2088699;28;19927;-57
2021/09/23 06:08:08;;;;;;;;;;;;;;;;;;2090687;28;20286;-58
2021/09/23 06:09:09;;;;;;;;;;;;;;;;;;2090154;28;20389;-57
2021/09/23 06:10:10;;;;;;;;;;;;;;;;;;2088494;28;20007;-57
2021/09/23 06:11:10;;;;;;;;;;;;;;;;;;2090377;28;19931;-57
2021/09/23 06:12:11;;;;;;;;;;;;;;;;;;2090122;28;20266;-57
2021/09/23 06:13:12;;;;;;;;;;;;;;;;;;2086539;28;19921;-57
2021/09/23 06:14:13;;;;;;;;;;;;;;;;;;2082173;28;19944;-57
2021/09/23 06:15:14;;;;;;;;;;;;;;;;;;2083972;28;19921;-57
2021/09/23 06:16:18;;;;;;;;;;;;;;;;;;2088451;28;19921;-56
2021/09/23 06:17:19;;;;;;;;;;;;;;;;;;2090544;28;19925;-57
2021/09/23 06:18:19;;;;;;;;;;;;;;;;;;2089827;28;20129;-57
2021/09/23 06:19:20;;;;;;;;;;;;;;;;;;2089026;28;19947;-57
2021/09/23 06:20:21;;;;;;;;;;;;;;;;;;2090480;28;20220;-58
2021/09/23 06:21:25;;;;;;;;;;;;;;;;;;2089611;28;19920;-58
2021/09/23 06:22:26;;;;;;;;;;;;;;;;;;2089009;28;20151;-57
2021/09/23 06:23:26;;;;;;;;;;;;;;;;;;2090542;28;19920;-57
2021/09/23 06:24:27;;;;;;;;;;;;;;;;;;2089426;28;19927;-58
2021/09/23 06:25:28;;;;;;;;;;;;;;;;;;2083764;28;20351;-57
2021/09/23 06:26:29;;;;;;;;;;;;;;;;;;2082144;28;19953;-57
2021/09/23 06:27:30;;;;;;;;;;;;;;;;;;2086806;28;20290;-57
2021/09/23 06:28:30;;;;;;;;;;;;;;;;;;2090336;28;19925;-57
2021/09/23 06:29:31;;;;;;;;;;;;;;;;;;2090352;28;20081;-57
2021/09/23 06:30:32;;;;;;;;;;;;;;;;;;2088207;28;19921;-58
2021/09/23 06:31:34;;;;;;;;;;;;;;;;;;2090348;28;20354;-58
2021/09/23 06:32:34;;;;;;;;;;;;;;;;;;2090497;28;19921;-58
2021/09/23 06:33:35;;;;;;;;;;;;;;;;;;2088926;28;20326;-57
2021/09/23 06:34:36;;;;;;;;;;;;;;;;;;2082206;28;19921;-58
2021/09/23 06:35:37;;;;;;;;;;;;;;;;;;2082063;28;20271;-57
2021/09/23 06:36:38;;;;;;;;;;;;;;;;;;2086981;28;20000;-43
2021/09/23 06:37:39;;;;;;;;;;;;;;;;;;2082176;28;20362;-43
2021/09/23 06:38:39;;;;;;;;;;;;;;;;;;2082215;28;19921;-43
2021/09/23 06:39:40;;;;;;;;;;;;;;;;;;2087471;28;20294;-43
2021/09/23 06:40:41;;;;;;;;;;;;;;;;;;2090512;28;20098;-58
2021/09/23 06:41:42;;;;;;;;;;;;;;;;;;2090067;28;19930;-58
2021/09/23 06:42:42;;;;;;;;;;;;;;;;;;2088323;28;19928;-57
2021/09/23 06:43:44;;;;;;;;;;;;;;;;;;2090449;28;19928;-58
2021/09/23 06:44:45;;;;;;;;;;;;;;;;;;2088931;28;19924;-57
2021/09/23 06:45:46;;;;;;;;;;;;;;;;;;2088100;28;20406;-57
2021/09/23 06:46:47;;;;;;;;;;;;;;;;;;2090321;28;19956;-58
2021/09/23 06:47:48;;;;;;;;;;;;;;;;;;2089703;28;19920;-58
2021/09/23 06:48:50;;;;;;;;;;;;;;;;;;2086470;28;19928;-43
2021/09/23 06:49:52;;;;;;;;;;;;;;;;;;2082036;28;19924;-43
2021/09/23 06:50:53;;;;;;;;;;;;;;;;;;2082373;28;20449;-43
2021/09/23 06:51:53;;;;;;;;;;;;;;;;;;2085624;28;19921;-43
2021/09/23 06:52:54;;;;;;;;;;;;;;;;;;2082048;28;20261;-44
2021/09/23 06:53:56;;;;;;;;;;;;;;;;;;2084466;28;19920;-43
2021/09/23 06:54:57;;;;;;;;;;;;;;;;;;2083849;28;20297;-43
2021/09/23 06:55:58;;;;;;;;;;;;;;;;;;2081974;28;19921;-44
2021/09/23 06:56:59;;;;;;;;;;;;;;;;;;2085343;28;20298;-43